Forside
METAR-TAF:

METAR-TAF

Lufthavne :

Wittman Regional Airport

Oshkosh, Wisconsin, USA

Breddekreds: 43-58-00N, længdekreds: 088-33-29W, højde: 246 m

Aktuelle vejr

Denne rapport blev lavet for 21 minutter siden, kl. 19:53 UTC
Vind 11 kt fra sydsydvest
Temperatur 3°C
Fugtighed 65%
Tryk 1017 hPa
Sigt: 16.1 km
skyfri

METAR: KOSH 221953Z 20011KT 10SM CLR 03/M03 A3003 RMK AO2 SLP184 T00281033

Tid: 14:14 (20:14 UTC)


TAF: fraværende

Vejrobservationer og prognoser fra mere end 4000 lufthavne (METAR og TAF).

De gule og røde prikker repræsenterer de meteorologiske stationer.

Flyt musen over at se navnet på stationen.

Så klik over at se vejr observationer og prognoser.

At skifte det kort: Klik på de grønne knapper med et sort kors for at zoome ind; på den grønne knap med en bindestreg for at zoome ud; eller på de grønne pile for tilstødende kort.


METAR-TAF: